sensor_id;sensor_type;location;lat;lon;timestamp;temperature;humidity
63407;SHT31;49543;45.892;10.838;2023-08-08T07:44:16;23.28;51.65
63407;SHT31;49543;45.892;10.838;2023-08-08T07:46:42;23.28;51.01
63407;SHT31;49543;45.892;10.838;2023-08-08T07:49:07;23.40;51.34
63407;SHT31;49543;45.892;10.838;2023-08-08T09:05:25;27.03;45.07
63407;SHT31;49543;45.892;10.838;2023-08-08T09:07:50;27.04;45.47
63407;SHT31;49543;45.892;10.838;2023-08-08T09:10:16;27.00;45.08
63407;SHT31;49543;45.892;10.838;2023-08-08T09:12:42;26.91;44.61
63407;SHT31;49543;45.892;10.838;2023-08-08T09:15:07;26.75;44.84
63407;SHT31;49543;45.892;10.838;2023-08-08T09:17:34;26.59;45.12
63407;SHT31;49543;45.892;10.838;2023-08-08T09:19:59;26.55;45.01
63407;SHT31;49543;45.892;10.838;2023-08-08T09:22:25;26.53;45.05
63407;SHT31;49543;45.892;10.838;2023-08-08T09:24:52;26.53;45.23
63407;SHT31;49543;45.892;10.838;2023-08-08T09:27:17;26.52;46.06
63407;SHT31;49543;45.892;10.838;2023-08-08T09:29:43;26.68;46.89
63407;SHT31;49543;45.892;10.838;2023-08-08T09:32:08;26.79;47.00
63407;SHT31;49543;45.892;10.838;2023-08-08T09:34:34;26.93;48.80
63407;SHT31;49543;45.892;10.838;2023-08-08T09:36:59;27.04;49.01
63407;SHT31;49543;45.892;10.838;2023-08-08T09:39:25;27.07;50.35
63407;SHT31;49543;45.892;10.838;2023-08-08T09:41:50;27.04;49.74
63407;SHT31;49543;45.892;10.838;2023-08-08T09:44:16;26.96;50.52
63407;SHT31;49543;45.892;10.838;2023-08-08T09:46:42;26.87;50.97
63407;SHT31;49543;45.892;10.838;2023-08-08T09:49:08;26.76;54.11
63407;SHT31;49543;45.892;10.838;2023-08-08T09:51:34;26.60;55.11
63407;SHT31;49543;45.892;10.838;2023-08-08T09:54:00;26.48;53.03
63407;SHT31;49543;45.892;10.838;2023-08-08T09:56:25;26.33;53.54
63407;SHT31;49543;45.892;10.838;2023-08-08T09:58:51;26.22;50.01
63407;SHT31;49543;45.892;10.838;2023-08-08T10:01:17;26.17;53.72
63407;SHT31;49543;45.892;10.838;2023-08-08T10:03:43;26.09;56.47
63407;SHT31;49543;45.892;10.838;2023-08-08T10:06:10;25.98;56.57
63407;SHT31;49543;45.892;10.838;2023-08-08T10:08:35;25.90;57.75
63407;SHT31;49543;45.892;10.838;2023-08-08T10:11:00;25.83;58.92
63407;SHT31;49543;45.892;10.838;2023-08-08T10:13:26;25.80;59.08
63407;SHT31;49543;45.892;10.838;2023-08-08T10:15:52;25.71;58.73
63407;SHT31;49543;45.892;10.838;2023-08-08T10:18:18;25.69;59.00
63407;SHT31;49543;45.892;10.838;2023-08-08T10:20:49;25.60;51.68
63407;SHT31;49543;45.892;10.838;2023-08-08T10:23:18;25.60;53.33
63407;SHT31;49543;45.892;10.838;2023-08-08T10:25:44;25.65;54.99
63407;SHT31;49543;45.892;10.838;2023-08-08T10:28:10;25.63;51.80
63407;SHT31;49543;45.892;10.838;2023-08-08T10:30:48;25.67;54.01
63407;SHT31;49543;45.892;10.838;2023-08-08T10:33:17;25.66;52.45
63407;SHT31;49543;45.892;10.838;2023-08-08T10:35:50;25.71;51.17
63407;SHT31;49543;45.892;10.838;2023-08-08T10:38:16;25.74;54.30
63407;SHT31;49543;45.892;10.838;2023-08-08T10:40:42;25.74;56.96
63407;SHT31;49543;45.892;10.838;2023-08-08T10:43:11;25.73;53.21
63407;SHT31;49543;45.892;10.838;2023-08-08T10:45:37;25.67;52.59
63407;SHT31;49543;45.892;10.838;2023-08-08T10:48:07;25.67;56.53
63407;SHT31;49543;45.892;10.838;2023-08-08T10:50:33;25.66;57.84
63407;SHT31;49543;45.892;10.838;2023-08-08T10:53:03;25.65;56.82
63407;SHT31;49543;45.892;10.838;2023-08-08T10:55:33;25.66;57.64
63407;SHT31;49543;45.892;10.838;2023-08-08T10:58:05;25.70;57.95
63407;SHT31;49543;45.892;10.838;2023-08-08T11:00:31;25.71;57.57
63407;SHT31;49543;45.892;10.838;2023-08-08T11:02:57;25.71;58.32
63407;SHT31;49543;45.892;10.838;2023-08-08T11:05:23;25.73;58.11
63407;SHT31;49543;45.892;10.838;2023-08-08T11:07:48;25.73;57.34
63407;SHT31;49543;45.892;10.838;2023-08-08T11:10:14;25.71;57.95
63407;SHT31;49543;45.892;10.838;2023-08-08T11:12:39;25.70;50.49
63407;SHT31;49543;45.892;10.838;2023-08-08T11:15:05;25.73;47.01
63407;SHT31;49543;45.892;10.838;2023-08-08T11:17:31;25.76;49.04
63407;SHT31;49543;45.892;10.838;2023-08-08T11:19:56;25.78;48.45
63407;SHT31;49543;45.892;10.838;2023-08-08T11:22:22;25.77;47.69
63407;SHT31;49543;45.892;10.838;2023-08-08T11:24:51;25.76;46.81
63407;SHT31;49543;45.892;10.838;2023-08-08T11:27:16;25.78;46.25
63407;SHT31;49543;45.892;10.838;2023-08-08T11:29:49;25.90;46.97
63407;SHT31;49543;45.892;10.838;2023-08-08T11:32:15;25.98;49.22
63407;SHT31;49543;45.892;10.838;2023-08-08T11:34:40;26.17;47.53
63407;SHT31;49543;45.892;10.838;2023-08-08T11:37:06;26.29;45.54
63407;SHT31;49543;45.892;10.838;2023-08-08T11:39:31;26.52;45.95
63407;SHT31;49543;45.892;10.838;2023-08-08T11:41:57;26.80;45.82
63407;SHT31;49543;45.892;10.838;2023-08-08T11:44:22;27.07;45.70
63407;SHT31;49543;45.892;10.838;2023-08-08T11:46:47;27.12;45.02
63407;SHT31;49543;45.892;10.838;2023-08-08T16:57:10;25.74;59.29
63407;SHT31;49543;45.892;10.838;2023-08-08T16:59:36;25.69;57.55
63407;SHT31;49543;45.892;10.838;2023-08-08T17:02:02;25.66;58.55
63407;SHT31;49543;45.892;10.838;2023-08-08T17:04:28;25.63;58.56
63407;SHT31;49543;45.892;10.838;2023-08-08T17:06:53;25.63;58.34
63407;SHT31;49543;45.892;10.838;2023-08-08T17:09:19;25.60;57.39
63407;SHT31;49543;45.892;10.838;2023-08-08T17:11:44;25.65;56.30
63407;SHT31;49543;45.892;10.838;2023-08-08T17:14:09;25.70;56.97
63407;SHT31;49543;45.892;10.838;2023-08-08T17:16:35;25.69;56.91
63407;SHT31;49543;45.892;10.838;2023-08-08T17:19:00;25.65;56.70
63407;SHT31;49543;45.892;10.838;2023-08-08T17:21:25;25.70;54.04
63407;SHT31;49543;45.892;10.838;2023-08-08T17:23:51;25.73;53.66
63407;SHT31;49543;45.892;10.838;2023-08-08T17:26:16;25.83;53.51
63407;SHT31;49543;45.892;10.838;2023-08-08T17:28:41;25.93;52.58
63407;SHT31;49543;45.892;10.838;2023-08-08T17:31:07;25.88;53.23
63407;SHT31;49543;45.892;10.838;2023-08-08T17:33:32;25.88;53.96
63407;SHT31;49543;45.892;10.838;2023-08-08T17:35:57;25.90;52.86
63407;SHT31;49543;45.892;10.838;2023-08-08T17:38:23;25.93;51.91
63407;SHT31;49543;45.892;10.838;2023-08-08T17:40:48;25.90;52.64
63407;SHT31;49543;45.892;10.838;2023-08-08T17:43:14;25.86;52.52
63407;SHT31;49543;45.892;10.838;2023-08-08T17:45:39;25.87;52.90
63407;SHT31;49543;45.892;10.838;2023-08-08T17:48:04;25.87;51.09
63407;SHT31;49543;45.892;10.838;2023-08-08T17:50:30;25.88;51.57
63407;SHT31;49543;45.892;10.838;2023-08-08T17:52:56;25.94;50.63
63407;SHT31;49543;45.892;10.838;2023-08-08T17:55:21;26.00;50.41
63407;SHT31;49543;45.892;10.838;2023-08-08T17:57:47;25.95;51.10
63407;SHT31;49543;45.892;10.838;2023-08-08T18:00:12;25.91;51.62
63407;SHT31;49543;45.892;10.838;2023-08-08T18:02:37;25.86;52.38
63407;SHT31;49543;45.892;10.838;2023-08-08T18:05:04;25.78;52.29
63407;SHT31;49543;45.892;10.838;2023-08-08T18:07:29;25.74;53.65
63407;SHT31;49543;45.892;10.838;2023-08-08T18:09:54;25.71;54.67
63407;SHT31;49543;45.892;10.838;2023-08-08T18:12:20;25.51;55.17
63407;SHT31;49543;45.892;10.838;2023-08-08T18:14:45;25.43;57.34
63407;SHT31;49543;45.892;10.838;2023-08-08T18:17:10;25.26;56.59
63407;SHT31;49543;45.892;10.838;2023-08-08T18:19:36;25.16;58.09
63407;SHT31;49543;45.892;10.838;2023-08-08T18:22:01;25.08;58.61
63407;SHT31;49543;45.892;10.838;2023-08-08T18:24:27;25.02;58.91
63407;SHT31;49543;45.892;10.838;2023-08-08T18:26:53;24.94;59.12
63407;SHT31;49543;45.892;10.838;2023-08-08T18:29:18;24.91;59.03
63407;SHT31;49543;45.892;10.838;2023-08-08T18:31:43;24.81;59.09
63407;SHT31;49543;45.892;10.838;2023-08-08T18:34:09;24.75;59.64
63407;SHT31;49543;45.892;10.838;2023-08-08T18:36:34;24.67;59.15
63407;SHT31;49543;45.892;10.838;2023-08-08T18:39:00;24.64;58.53
63407;SHT31;49543;45.892;10.838;2023-08-08T18:41:25;24.64;58.48
63407;SHT31;49543;45.892;10.838;2023-08-08T18:43:51;24.60;58.86
63407;SHT31;49543;45.892;10.838;2023-08-08T18:46:16;24.56;59.48
63407;SHT31;49543;45.892;10.838;2023-08-08T18:48:43;24.44;58.74
63407;SHT31;49543;45.892;10.838;2023-08-08T18:51:09;24.37;59.55
63407;SHT31;49543;45.892;10.838;2023-08-08T18:53:35;24.32;60.18
63407;SHT31;49543;45.892;10.838;2023-08-08T18:56:01;24.26;59.75
63407;SHT31;49543;45.892;10.838;2023-08-08T18:58:27;24.22;59.50
63407;SHT31;49543;45.892;10.838;2023-08-08T19:00:52;24.18;60.49
63407;SHT31;49543;45.892;10.838;2023-08-08T19:03:17;24.12;60.22
63407;SHT31;49543;45.892;10.838;2023-08-08T19:05:43;23.99;61.19
63407;SHT31;49543;45.892;10.838;2023-08-08T19:08:08;23.95;61.19
63407;SHT31;49543;45.892;10.838;2023-08-08T19:10:34;23.88;60.79
63407;SHT31;49543;45.892;10.838;2023-08-08T19:12:59;23.82;61.52
63407;SHT31;49543;45.892;10.838;2023-08-08T19:15:25;23.78;61.75
63407;SHT31;49543;45.892;10.838;2023-08-08T19:17:50;23.72;61.75
63407;SHT31;49543;45.892;10.838;2023-08-08T19:20:15;23.68;61.50
63407;SHT31;49543;45.892;10.838;2023-08-08T19:22:41;23.63;61.63
63407;SHT31;49543;45.892;10.838;2023-08-08T19:25:06;23.63;62.52
63407;SHT31;49543;45.892;10.838;2023-08-08T19:27:32;23.61;62.72
63407;SHT31;49543;45.892;10.838;2023-08-08T19:29:57;23.58;62.46
63407;SHT31;49543;45.892;10.838;2023-08-08T19:32:23;23.54;62.12
63407;SHT31;49543;45.892;10.838;2023-08-08T19:34:48;23.51;62.02
63407;SHT31;49543;45.892;10.838;2023-08-08T19:37:14;23.49;62.90
63407;SHT31;49543;45.892;10.838;2023-08-08T19:39:39;23.42;62.94
63407;SHT31;49543;45.892;10.838;2023-08-08T19:42:05;23.39;62.96
63407;SHT31;49543;45.892;10.838;2023-08-08T19:44:30;23.33;62.38
63407;SHT31;49543;45.892;10.838;2023-08-08T19:46:55;23.31;60.46
63407;SHT31;49543;45.892;10.838;2023-08-08T19:49:21;23.34;58.47
63407;SHT31;49543;45.892;10.838;2023-08-08T19:51:46;23.42;58.67
63407;SHT31;49543;45.892;10.838;2023-08-08T19:54:12;23.49;59.21
63407;SHT31;49543;45.892;10.838;2023-08-08T19:56:37;23.50;59.51
63407;SHT31;49543;45.892;10.838;2023-08-08T19:59:02;23.57;61.04
63407;SHT31;49543;45.892;10.838;2023-08-08T20:01:28;23.51;60.93
63407;SHT31;49543;45.892;10.838;2023-08-08T20:03:54;23.49;60.22
63407;SHT31;49543;45.892;10.838;2023-08-08T20:06:20;23.43;60.37
63407;SHT31;49543;45.892;10.838;2023-08-08T20:08:45;23.40;61.36
63407;SHT31;49543;45.892;10.838;2023-08-08T20:11:10;23.31;62.07
63407;SHT31;49543;45.892;10.838;2023-08-08T20:13:36;23.24;62.72
63407;SHT31;49543;45.892;10.838;2023-08-08T20:16:01;23.19;62.42
63407;SHT31;49543;45.892;10.838;2023-08-08T20:18:27;23.13;63.37
63407;SHT31;49543;45.892;10.838;2023-08-08T20:20:52;23.09;63.32
63407;SHT31;49543;45.892;10.838;2023-08-08T20:23:18;23.09;63.54
63407;SHT31;49543;45.892;10.838;2023-08-08T20:25:43;23.07;64.07
63407;SHT31;49543;45.892;10.838;2023-08-08T20:28:08;23.00;64.49
63407;SHT31;49543;45.892;10.838;2023-08-08T20:30:34;22.96;63.73
63407;SHT31;49543;45.892;10.838;2023-08-08T20:33:00;22.92;63.33
63407;SHT31;49543;45.892;10.838;2023-08-08T20:35:25;22.88;63.36
63407;SHT31;49543;45.892;10.838;2023-08-08T20:37:51;22.88;62.31
63407;SHT31;49543;45.892;10.838;2023-08-08T20:40:17;22.85;62.71
63407;SHT31;49543;45.892;10.838;2023-08-08T20:42:42;22.78;62.35
63407;SHT31;49543;45.892;10.838;2023-08-08T20:45:08;22.79;62.71
63407;SHT31;49543;45.892;10.838;2023-08-08T20:47:33;22.81;62.17
63407;SHT31;49543;45.892;10.838;2023-08-08T20:49:59;22.81;62.64
63407;SHT31;49543;45.892;10.838;2023-08-08T20:52:24;22.85;62.66
63407;SHT31;49543;45.892;10.838;2023-08-08T20:54:49;22.85;63.38
63407;SHT31;49543;45.892;10.838;2023-08-08T20:57:14;22.85;63.97
63407;SHT31;49543;45.892;10.838;2023-08-08T20:59:40;22.81;64.08
63407;SHT31;49543;45.892;10.838;2023-08-08T21:02:07;22.76;64.22
63407;SHT31;49543;45.892;10.838;2023-08-08T21:04:33;22.75;64.39
63407;SHT31;49543;45.892;10.838;2023-08-08T21:06:58;22.72;64.27
63407;SHT31;49543;45.892;10.838;2023-08-08T21:09:24;22.69;63.90
63407;SHT31;49543;45.892;10.838;2023-08-08T21:11:50;22.68;64.45
63407;SHT31;49543;45.892;10.838;2023-08-08T21:14:16;22.65;64.41
63407;SHT31;49543;45.892;10.838;2023-08-08T21:16:42;22.64;64.88
63407;SHT31;49543;45.892;10.838;2023-08-08T21:19:08;22.55;65.05
63407;SHT31;49543;45.892;10.838;2023-08-08T21:21:33;22.54;63.11
63407;SHT31;49543;45.892;10.838;2023-08-08T21:23:58;22.43;63.76
63407;SHT31;49543;45.892;10.838;2023-08-08T21:26:24;22.39;64.08
63407;SHT31;49543;45.892;10.838;2023-08-08T21:28:49;22.36;63.98
63407;SHT31;49543;45.892;10.838;2023-08-08T21:31:15;22.33;64.11
63407;SHT31;49543;45.892;10.838;2023-08-08T21:33:41;22.24;63.87
63407;SHT31;49543;45.892;10.838;2023-08-08T21:36:06;22.21;64.48
63407;SHT31;49543;45.892;10.838;2023-08-08T21:38:32;22.14;65.02
63407;SHT31;49543;45.892;10.838;2023-08-08T21:40:58;22.07;65.46
63407;SHT31;49543;45.892;10.838;2023-08-08T21:43:24;22.06;66.00
63407;SHT31;49543;45.892;10.838;2023-08-08T21:45:50;22.05;66.08
63407;SHT31;49543;45.892;10.838;2023-08-08T21:48:16;22.02;66.01
63407;SHT31;49543;45.892;10.838;2023-08-08T21:50:41;22.00;65.84
63407;SHT31;49543;45.892;10.838;2023-08-08T21:53:07;21.99;65.95
63407;SHT31;49543;45.892;10.838;2023-08-08T21:55:32;21.97;66.27
